Silver Valley, North Carolina
Current Conditions -  °F | °C
As of 2:35 AM on Monday 22 Dec 2014 (Local Time) from KEXX Reporting Station
Drizzle Drizzle  
Wind Chill: 39°   Ceiling: 3400
Heat Index: 39°   Visibility: 5mi
Dew Point: 37°   Wind: 3mph
Humidity: 92%   Direction: 20°NNE
Pressure: 30.16"   Gusts: NA
Location:  35.7974°N, 80.2541°W
Report Text: KEXX 220735Z AUTO 02003KT 5SM -DZ SCT028 OVC034 04/03 A3016 RMK AO2 T00370025
Loading
Personal Weather Stations






























Interactive Weather Map New forecast layout! Learn more

10-Day Weather Forecast

Advertisements
Track Severe Weather on mobile